Time;durP1;ratioP1;P1;durP2;ratioP2;P2;SDS_P1;SDS_P2;PMS_P1;PMS_P2;Temp;Humidity;BMP_temperature;BMP_pressure;BME280_temperature;BME280_humidity;BME280_pressure;Samples;Min_cycle;Max_cycle;Signal;HPM_P1;HPM_P2
2023/03/16 00:01:33;;;;;;;11.13;3.97;;;;;;;5.17;100.00;101729.50;5244105;28;20116;-75
2023/03/16 00:04:03;;;;;;;7.93;4.38;;;;;;;5.20;100.00;101721.28;5244366;28;20032;-75
2023/03/16 00:06:35;;;;;;;8.32;4.25;;;;;;;5.15;100.00;101722.59;5243478;28;20027;-74
2023/03/16 00:09:06;;;;;;;10.18;4.20;;;;;;;5.14;100.00;101712.91;5243759;28;20017;-75
2023/03/16 00:11:36;;;;;;;15.82;4.10;;;;;;;5.20;100.00;101705.31;5243951;28;20024;-75
2023/03/16 00:14:07;;;;;;;6.20;3.65;;;;;;;5.20;100.00;101709.81;5244147;28;20046;-75
2023/03/16 00:16:38;;;;;;;7.90;4.13;;;;;;;5.22;100.00;101705.25;5225326;28;20024;-75
2023/03/16 00:19:08;;;;;;;5.00;3.78;;;;;;;5.22;100.00;101718.53;5243764;28;20027;-75
2023/03/16 00:21:39;;;;;;;8.18;3.50;;;;;;;5.19;100.00;101708.97;5243694;28;20035;-75
2023/03/16 00:24:11;;;;;;;6.80;3.22;;;;;;;5.19;100.00;101706.28;5244063;28;20024;-75
2023/03/16 00:26:42;;;;;;;8.50;5.10;;;;;;;5.19;100.00;101710.78;5243293;28;20422;-75
2023/03/16 00:29:12;;;;;;;8.80;4.28;;;;;;;5.15;100.00;101709.28;5243418;28;20078;-75
2023/03/16 00:31:43;;;;;;;8.57;3.83;;;;;;;5.16;100.00;101703.00;5243448;28;20024;-75
2023/03/16 00:34:14;;;;;;;7.85;4.15;;;;;;;5.19;100.00;101710.78;5244070;28;20120;-75
2023/03/16 00:36:44;;;;;;;10.60;3.97;;;;;;;5.19;100.00;101698.31;5243405;28;20028;-75
2023/03/16 00:39:15;;;;;;;10.32;3.67;;;;;;;5.24;100.00;101695.31;5243519;28;20031;-75
2023/03/16 00:41:45;;;;;;;9.48;4.63;;;;;;;5.27;100.00;101696.91;5218366;28;20503;-75
2023/03/16 00:44:16;;;;;;;8.88;3.70;;;;;;;5.25;100.00;101691.69;5243634;28;20077;-75
2023/03/16 00:46:46;;;;;;;8.38;3.72;;;;;;;5.26;100.00;101688.06;5243473;28;20048;-75
2023/03/16 00:49:17;;;;;;;7.35;3.20;;;;;;;5.26;100.00;101688.06;5233327;28;20445;-75
2023/03/16 00:51:47;;;;;;;7.47;3.65;;;;;;;5.28;100.00;101690.63;5243551;28;20097;-75
2023/03/16 00:54:18;;;;;;;7.00;3.38;;;;;;;5.26;100.00;101690.72;5242225;28;20035;-75
2023/03/16 00:56:50;;;;;;;6.25;3.50;;;;;;;5.29;100.00;101684.34;5243521;28;20055;-75
2023/03/16 00:59:20;;;;;;;7.03;3.65;;;;;;;5.29;100.00;101682.53;5243372;28;20059;-75
2023/03/16 01:01:53;;;;;;;10.57;4.30;;;;;;;5.31;100.00;101685.91;5243513;28;20762;-75
2023/03/16 01:04:23;;;;;;;5.95;2.97;;;;;;;5.35;100.00;101681.25;5243639;28;20108;-75
2023/03/16 01:06:56;;;;;;;5.97;2.85;;;;;;;5.36;100.00;101669.63;5225121;28;20027;-74
2023/03/16 01:09:27;;;;;;;8.45;3.08;;;;;;;5.39;100.00;101680.91;5243566;28;20035;-75
2023/03/16 01:11:57;;;;;;;5.85;3.05;;;;;;;5.38;100.00;101673.03;5243358;28;20024;-75
2023/03/16 01:14:28;;;;;;;7.70;3.40;;;;;;;5.36;100.00;101666.97;5225783;28;20028;-74
2023/03/16 01:16:58;;;;;;;8.50;4.28;;;;;;;5.36;100.00;101665.16;5243137;28;20066;-75
2023/03/16 01:19:32;;;;;;;6.20;2.97;;;;;;;5.37;100.00;101648.25;5242994;28;20034;-75
2023/03/16 01:22:05;;;;;;;8.30;3.22;;;;;;;5.37;100.00;101652.69;5243491;28;20493;-75
2023/03/16 01:24:36;;;;;;;10.10;3.33;;;;;;;5.35;100.00;101655.47;5225403;28;20021;-75
2023/03/16 01:27:07;;;;;;;8.98;4.35;;;;;;;5.35;100.00;101655.47;5243076;28;20021;-75
2023/03/16 01:29:38;;;;;;;6.55;3.17;;;;;;;5.33;100.00;101646.78;5224973;28;20497;-75
2023/03/16 01:32:10;;;;;;;8.40;2.90;;;;;;;5.33;100.00;101641.44;5225564;28;20017;-75
2023/03/16 01:34:41;;;;;;;9.60;3.97;;;;;;;5.36;100.00;101641.19;5243151;28;20024;-75
2023/03/16 01:37:11;;;;;;;11.55;3.65;;;;;;;5.37;100.00;101639.38;5225094;28;20031;-75
2023/03/16 01:39:42;;;;;;;10.10;4.28;;;;;;;5.39;100.00;101632.16;5225018;28;20039;-75
2023/03/16 01:42:12;;;;;;;9.45;3.38;;;;;;;5.38;100.00;101633.13;5218856;28;20035;-74
2023/03/16 01:45:00;;;;;;;16.90;4.38;;;;;;;5.37;100.00;101626.97;5225261;28;20392;-75
2023/03/16 01:47:37;;;;;;;8.90;3.38;;;;;;;5.35;100.00;101620.88;5242372;28;20032;-75
2023/03/16 01:50:08;;;;;;;8.93;3.63;;;;;;;5.37;100.00;101623.41;5236050;28;20545;-75
2023/03/16 01:52:38;;;;;;;6.45;3.28;;;;;;;5.37;100.00;101626.09;5242173;28;20116;-75
2023/03/16 01:55:12;;;;;;;5.68;2.42;;;;;;;5.37;100.00;101618.97;5246255;28;20392;-75
2023/03/16 01:57:45;;;;;;;10.55;3.30;;;;;;;5.39;100.00;101622.34;5246209;28;20146;-75
2023/03/16 02:00:20;;;;;;;6.75;3.30;;;;;;;5.39;100.00;101619.69;5246464;28;20507;-75
2023/03/16 02:02:55;;;;;;;5.75;3.17;;;;;;;5.42;100.00;101610.63;5247658;28;20040;-75
2023/03/16 02:05:32;;;;;;;;;;;;;;;5.43;100.00;101613.19;5247591;28;20449;-74
2023/03/16 02:08:04;;;;;;;8.50;3.30;;;;;;;5.42;100.00;101615.94;5246854;28;19948;-74
2023/03/16 02:10:37;;;;;;;7.55;2.70;;;;;;;5.43;100.00;101623.84;5229170;28;20489;-75
2023/03/16 02:13:08;;;;;;;11.15;2.65;;;;;;;5.43;100.00;101618.50;5247195;28;20028;-74
2023/03/16 02:15:39;;;;;;;10.48;2.63;;;;;;;5.47;100.00;101608.47;5228635;28;20115;-75
2023/03/16 02:18:10;;;;;;;8.02;2.70;;;;;;;5.49;100.00;101611.03;5246536;28;20078;-75
2023/03/16 02:20:49;;;;;;;10.93;2.80;;;;;;;5.49;100.00;101600.38;5246953;28;20035;-75
2023/03/16 02:23:24;;;;;;;8.07;3.20;;;;;;;5.53;100.00;101609.84;5246910;28;20138;-75
2023/03/16 02:26:09;;;;;;;10.05;2.55;;;;;;;5.52;100.00;101608.13;5246655;28;20029;-75
2023/03/16 02:28:55;;;;;;;9.98;3.13;;;;;;;5.52;100.00;101602.81;5246487;28;20025;-75
2023/03/16 02:31:26;;;;;;;10.43;3.22;;;;;;;5.52;100.00;101600.13;5246535;28;20023;-75
2023/03/16 02:33:58;;;;;;;3.95;2.17;;;;;;;5.52;100.00;101601.00;5246889;28;20480;-75
2023/03/16 02:36:29;;;;;;;7.07;2.72;;;;;;;5.54;100.00;101598.22;5246202;28;20029;-75
2023/03/16 02:39:00;;;;;;;8.75;3.00;;;;;;;5.56;100.00;101578.50;5246747;28;20020;-75
2023/03/16 02:41:31;;;;;;;10.05;3.17;;;;;;;5.55;100.00;101584.78;5246200;28;20035;-75
2023/03/16 02:44:09;;;;;;;7.40;2.10;;;;;;;5.51;100.00;101582.47;5246763;28;20030;-75
2023/03/16 02:46:42;;;;;;;8.20;3.15;;;;;;;5.50;100.00;101580.78;5233579;28;20017;-75
2023/03/16 02:49:49;;;;;;;6.82;2.72;;;;;;;5.50;100.00;101578.13;5211906;28;20036;-75
2023/03/16 02:52:20;;;;;;;7.68;2.90;;;;;;;5.45;100.00;101574.00;5245652;28;20024;-75
2023/03/16 02:55:00;;;;;;;9.95;2.65;;;;;;;5.45;100.00;101574.00;5229927;28;20021;-75
2023/03/16 02:57:34;;;;;;;8.43;3.25;;;;;;;5.42;100.00;101576.91;5245947;28;20029;-74
2023/03/16 03:00:13;;;;;;;11.73;2.88;;;;;;;5.36;100.00;101569.34;5246576;28;20028;-75
2023/03/16 03:02:44;;;;;;;8.55;3.05;;;;;;;5.38;100.00;101571.94;5246689;28;20037;-75
2023/03/16 03:05:15;;;;;;;6.20;2.88;;;;;;;5.33;100.00;101560.78;5245238;28;20025;-75
2023/03/16 03:07:46;;;;;;;7.35;2.53;;;;;;;5.33;100.00;101563.44;5246436;28;20077;-75
2023/03/16 03:10:18;;;;;;;7.03;2.78;;;;;;;5.30;100.00;101564.50;5229005;28;20021;-75
2023/03/16 03:12:49;;;;;;;14.23;2.88;;;;;;;5.26;100.00;101560.38;5240549;28;20029;-75
2023/03/16 03:15:20;;;;;;;6.70;2.35;;;;;;;5.25;100.00;101553.34;5248256;28;20020;-75
2023/03/16 03:17:52;;;;;;;5.65;2.53;;;;;;;5.25;100.00;101557.84;5238799;28;20077;-75
2023/03/16 03:20:29;;;;;;;6.25;2.67;;;;;;;5.16;100.00;101543.41;5230319;28;20025;-74
2023/03/16 03:23:05;;;;;;;9.38;3.15;;;;;;;5.13;100.00;101549.81;5246095;28;20549;-75
2023/03/16 03:25:36;;;;;;;11.05;3.15;;;;;;;5.11;100.00;101546.41;5228098;28;20021;-75
2023/03/16 03:28:10;;;;;;;8.60;3.55;;;;;;;5.06;100.00;101539.72;5227416;28;20116;-75
2023/03/16 03:30:40;;;;;;;8.32;2.22;;;;;;;5.03;100.00;101540.81;5227183;28;20052;-75
2023/03/16 03:33:11;;;;;;;10.90;3.45;;;;;;;5.01;100.00;101541.88;5245636;28;20115;-75
2023/03/16 03:35:42;;;;;;;8.90;2.55;;;;;;;4.97;100.00;101540.41;5245514;28;20024;-75
2023/03/16 03:38:12;;;;;;;18.10;3.25;;;;;;;4.96;100.00;101538.69;5244737;28;20104;-75
2023/03/16 03:40:43;;;;;;;6.80;3.45;;;;;;;4.96;100.00;101542.22;5220942;28;20489;-74
2023/03/16 03:43:13;;;;;;;7.20;2.70;;;;;;;4.91;100.00;101536.38;5225999;28;20408;-75
2023/03/16 03:45:44;;;;;;;11.77;3.38;;;;;;;4.89;100.00;101535.66;5245169;28;20528;-75
2023/03/16 03:48:14;;;;;;;8.40;2.42;;;;;;;4.88;100.00;101526.84;5239396;28;20044;-75
2023/03/16 03:50:45;;;;;;;5.13;2.55;;;;;;;4.88;100.00;101526.84;5222106;28;20120;-75
2023/03/16 03:53:16;;;;;;;6.18;2.75;;;;;;;4.89;100.00;101517.91;5226153;28;20029;-74
2023/03/16 03:55:48;;;;;;;10.02;3.00;;;;;;;4.89;100.00;101515.22;5245047;28;20435;-75
2023/03/16 03:58:19;;;;;;;8.77;3.25;;;;;;;4.86;100.00;101518.09;5244425;28;20060;-74
2023/03/16 04:00:50;;;;;;;10.55;3.40;;;;;;;4.86;100.00;101518.09;5244706;28;20134;-75
2023/03/16 04:03:21;;;;;;;11.50;2.78;;;;;;;4.88;100.00;101518.00;5244831;28;20097;-75
2023/03/16 04:05:51;;;;;;;7.53;2.70;;;;;;;4.84;100.00;101514.72;5244403;28;20021;-75
2023/03/16 04:08:22;;;;;;;11.60;3.20;;;;;;;4.83;100.00;101505.06;5226474;28;20028;-75
2023/03/16 04:10:52;;;;;;;6.07;2.70;;;;;;;4.84;100.00;101508.56;5226676;28;20112;-74
2023/03/16 04:13:23;;;;;;;5.40;2.80;;;;;;;4.85;100.00;101511.09;5244225;28;20044;-74
2023/03/16 04:15:57;;;;;;;8.15;3.33;;;;;;;4.85;100.00;101497.81;5244451;28;20103;-74
2023/03/16 04:18:28;;;;;;;10.00;3.35;;;;;;;4.86;100.00;101502.16;5243686;28;20032;-75
2023/03/16 04:20:58;;;;;;;7.10;3.15;;;;;;;4.86;100.00;101503.97;5244469;28;20027;-75
2023/03/16 04:23:29;;;;;;;8.63;3.20;;;;;;;4.87;100.00;101497.69;5226463;28;20024;-75
2023/03/16 04:26:00;;;;;;;8.65;2.65;;;;;;;4.91;100.00;101491.19;5226683;28;20396;-75
2023/03/16 04:28:32;;;;;;;8.98;2.97;;;;;;;4.93;100.00;101482.16;5243911;28;20031;-74
2023/03/16 04:31:05;;;;;;;12.65;2.85;;;;;;;4.93;100.00;101486.63;5226127;28;20032;-74
2023/03/16 04:33:38;;;;;;;8.07;3.28;;;;;;;4.90;100.00;101479.69;5244062;28;20016;-74
2023/03/16 04:36:08;;;;;;;8.23;3.10;;;;;;;4.95;100.00;101482.03;5225979;28;20021;-75
2023/03/16 04:38:39;;;;;;;10.98;3.17;;;;;;;4.99;100.00;101478.19;5244320;28;20374;-75
2023/03/16 04:41:10;;;;;;;6.72;2.92;;;;;;;4.97;100.00;101472.13;5243873;28;20112;-75
2023/03/16 04:43:42;;;;;;;6.40;2.55;;;;;;;4.99;100.00;101472.00;5244164;28;20028;-74
2023/03/16 04:46:12;;;;;;;7.95;3.35;;;;;;;5.00;100.00;101474.53;5226181;28;20016;-75
2023/03/16 04:48:43;;;;;;;8.00;2.83;;;;;;;5.00;100.00;101471.88;5228095;28;20021;-75
2023/03/16 04:51:13;;;;;;;5.90;2.63;;;;;;;5.01;100.00;101472.72;5242333;28;20050;-74
2023/03/16 04:53:44;;;;;;;8.63;3.15;;;;;;;4.97;100.00;101464.16;5243216;28;20025;-75
2023/03/16 04:56:17;;;;;;;10.07;2.47;;;;;;;5.00;100.00;101474.53;5243780;28;20032;-75
2023/03/16 04:58:49;;;;;;;5.47;2.60;;;;;;;5.02;100.00;101474.41;5225827;28;20040;-75
2023/03/16 05:01:19;;;;;;;8.35;2.60;;;;;;;5.04;100.00;101457.41;5243724;28;20104;-74
2023/03/16 05:03:51;;;;;;;10.60;3.03;;;;;;;5.04;100.00;101465.38;5243982;28;20107;-75
2023/03/16 05:06:22;;;;;;;9.90;2.47;;;;;;;5.04;100.00;101467.19;5243398;28;20036;-74
2023/03/16 05:08:52;;;;;;;8.80;3.00;;;;;;;5.05;100.00;101472.38;5226049;28;20028;-74
2023/03/16 05:11:22;;;;;;;8.60;3.60;;;;;;;5.05;100.00;101460.91;5243873;28;20074;-74
2023/03/16 05:13:53;;;;;;;9.27;3.60;;;;;;;5.04;100.00;101460.06;5226076;28;20085;-75
2023/03/16 05:16:23;;;;;;;11.73;3.20;;;;;;;5.00;100.00;101452.44;5225673;28;20035;-75
2023/03/16 05:18:57;;;;;;;9.85;3.28;;;;;;;5.00;100.00;101450.63;5220024;28;20020;-75
2023/03/16 05:21:30;;;;;;;9.07;2.35;;;;;;;5.01;100.00;101443.47;5221338;28;20040;-74
2023/03/16 05:24:01;;;;;;;10.13;2.90;;;;;;;5.05;100.00;101450.28;5226420;28;20020;-75
2023/03/16 05:26:32;;;;;;;8.27;2.63;;;;;;;5.05;100.00;101440.47;5225859;28;20028;-75
2023/03/16 05:29:04;;;;;;;13.00;3.10;;;;;;;5.07;100.00;101441.22;5245537;28;20031;-74
2023/03/16 05:31:36;;;;;;;7.15;2.80;;;;;;;5.10;100.00;101450.78;5247053;28;20082;-74
2023/03/16 05:34:06;;;;;;;11.30;3.20;;;;;;;5.12;100.00;101439.06;5247895;28;20028;-74
2023/03/16 05:36:37;;;;;;;12.82;2.65;;;;;;;5.13;100.00;101437.25;5246941;28;20396;-75
2023/03/16 05:39:07;;;;;;;9.05;2.60;;;;;;;5.12;100.00;101431.09;5247505;28;20027;-75
2023/03/16 05:41:39;;;;;;;4.38;2.50;;;;;;;5.16;100.00;101426.34;5246834;28;20511;-74
2023/03/16 05:44:10;;;;;;;10.93;3.33;;;;;;;5.17;100.00;101433.38;5247203;28;20028;-75
2023/03/16 05:46:40;;;;;;;4.93;2.47;;;;;;;5.17;100.00;101444.88;5247056;28;20218;-74
2023/03/16 05:49:11;;;;;;;6.90;2.30;;;;;;;5.16;100.00;101432.53;5218807;28;20389;-75
2023/03/16 05:51:42;;;;;;;11.57;2.53;;;;;;;5.17;100.00;101431.59;5247036;28;20067;-75
2023/03/16 05:54:12;;;;;;;6.57;2.72;;;;;;;5.20;100.00;101430.47;5246276;28;20433;-75
2023/03/16 05:56:43;;;;;;;4.60;2.40;;;;;;;5.22;100.00;101422.38;5246717;28;20103;-75
2023/03/16 05:59:14;;;;;;;7.75;2.70;;;;;;;5.24;100.00;101428.44;5246954;28;20024;-75
2023/03/16 06:01:45;;;;;;;8.00;2.80;;;;;;;5.26;100.00;101439.81;5246955;28;20082;-75
2023/03/16 06:04:16;;;;;;;7.82;2.65;;;;;;;5.27;100.00;101445.03;5229262;28;20025;-74
2023/03/16 06:06:46;;;;;;;8.85;2.80;;;;;;;5.30;100.00;101435.94;5246212;28;20017;-75
2023/03/16 06:09:16;;;;;;;5.95;2.30;;;;;;;5.32;100.00;101437.53;5246865;28;20028;-76
2023/03/16 06:11:47;;;;;;;6.75;2.38;;;;;;;5.34;100.00;101432.09;5246736;28;20016;-76
2023/03/16 06:14:17;;;;;;;6.47;2.47;;;;;;;5.39;100.00;101427.25;5247022;28;20477;-75
2023/03/16 06:16:48;;;;;;;8.73;2.55;;;;;;;5.46;100.00;101423.16;5246391;28;20033;-75
2023/03/16 06:19:18;;;;;;;12.13;2.50;;;;;;;5.44;100.00;101431.25;5228430;28;20027;-74
2023/03/16 06:21:49;;;;;;;4.50;2.70;;;;;;;5.43;100.00;101426.06;5228667;28;20020;-75
2023/03/16 06:24:20;;;;;;;4.63;2.30;;;;;;;5.46;100.00;101425.81;5246718;28;20031;-75
2023/03/16 06:26:50;;;;;;;10.00;2.30;;;;;;;5.46;100.00;101410.69;5228147;28;20027;-75
2023/03/16 06:29:21;;;;;;;7.30;2.03;;;;;;;5.50;100.00;101413.13;5246509;28;20480;-75
2023/03/16 06:31:51;;;;;;;5.93;2.40;;;;;;;5.55;100.00;101414.44;5245829;28;20024;-75
2023/03/16 06:34:22;;;;;;;6.68;2.60;;;;;;;5.55;100.00;101410.94;5246207;28;20035;-75
2023/03/16 06:36:52;;;;;;;6.90;2.40;;;;;;;5.58;100.00;101419.56;5245960;28;20438;-75
2023/03/16 06:39:22;;;;;;;6.82;3.05;;;;;;;5.59;100.00;101415.06;5245793;28;20039;-75
2023/03/16 06:41:53;;;;;;;10.55;3.03;;;;;;;5.62;100.00;101409.50;5239210;28;20020;-75
2023/03/16 06:44:24;;;;;;;3.75;2.22;;;;;;;5.62;100.00;101409.50;5245884;28;20119;-75
2023/03/16 06:46:55;;;;;;;8.13;2.55;;;;;;;5.61;100.00;101415.78;5245236;28;20514;-74
2023/03/16 06:49:26;;;;;;;7.18;2.25;;;;;;;5.62;100.00;101409.50;5236471;28;20033;-74
2023/03/16 06:51:57;;;;;;;8.75;2.22;;;;;;;5.63;100.00;101416.53;5246181;28;20035;-76
2023/03/16 06:54:31;;;;;;;7.47;2.33;;;;;;;5.68;100.00;101415.19;5227505;28;20032;-76
2023/03/16 06:57:02;;;;;;;4.88;1.98;;;;;;;5.70;100.00;101415.91;5244985;28;20024;-76
2023/03/16 06:59:33;;;;;;;9.95;4.00;;;;;;;5.72;100.00;101415.78;5245657;28;20026;-76
2023/03/16 07:02:03;;;;;;;6.07;2.30;;;;;;;5.76;100.00;101422.56;5245908;28;20059;-76
2023/03/16 07:04:34;;;;;;;6.50;2.25;;;;;;;5.81;100.00;101414.22;5245901;28;20531;-75
2023/03/16 07:07:05;;;;;;;8.80;3.13;;;;;;;5.81;100.00;101415.06;5215163;28;20021;-75
2023/03/16 07:09:35;;;;;;;4.80;2.00;;;;;;;5.83;100.00;101413.13;5209124;28;20032;-76
2023/03/16 07:12:06;;;;;;;8.02;1.88;;;;;;;5.83;100.00;101418.47;5244302;28;20127;-76
2023/03/16 07:14:37;;;;;;;7.57;2.00;;;;;;;5.89;100.00;101415.31;5244613;28;20040;-75
2023/03/16 07:17:07;;;;;;;6.65;2.33;;;;;;;5.89;100.00;101411.81;5242564;28;20024;-75
2023/03/16 07:19:38;;;;;;;9.90;2.10;;;;;;;5.92;100.00;101414.22;5243441;28;20366;-75
2023/03/16 07:22:08;;;;;;;4.00;2.05;;;;;;;5.97;100.00;101420.03;5243808;28;20029;-75
2023/03/16 07:24:40;;;;;;;8.25;2.10;;;;;;;6.00;100.00;101409.16;5243868;28;20051;-75
2023/03/16 07:27:11;;;;;;;6.97;2.47;;;;;;;6.00;100.00;101409.16;5243146;28;20415;-75
2023/03/16 07:29:41;;;;;;;4.40;2.08;;;;;;;5.98;100.00;101411.09;5243462;28;20074;-75
2023/03/16 07:32:12;;;;;;;8.68;1.73;;;;;;;6.03;100.00;101410.75;5243235;28;20024;-76
2023/03/16 07:34:42;;;;;;;7.13;1.90;;;;;;;6.10;100.00;101411.94;5243548;28;20021;-76
2023/03/16 07:37:15;;;;;;;6.38;1.92;;;;;;;6.18;100.00;101413.00;5242500;28;20028;-76
2023/03/16 07:39:45;;;;;;;3.80;1.90;;;;;;;6.25;100.00;101415.16;5243410;28;20028;-75
2023/03/16 07:42:17;;;;;;;4.05;2.08;;;;;;;6.32;100.00;101411.88;5236062;28;20024;-77
2023/03/16 07:44:47;;;;;;;5.88;2.05;;;;;;;6.32;100.00;101417.19;5225138;28;20024;-78
2023/03/16 07:47:18;;;;;;;5.65;1.65;;;;;;;6.30;100.00;101413.81;5220883;28;20559;-78
2023/03/16 07:49:49;;;;;;;8.10;1.95;;;;;;;6.28;100.00;101418.44;5213024;28;20395;-77
2023/03/16 07:52:19;;;;;;;6.10;1.90;;;;;;;6.30;100.00;101407.66;5224272;28;20028;-77
2023/03/16 07:54:50;;;;;;;2.67;1.60;;;;;;;6.33;100.00;101421.59;5209562;28;20027;-78
2023/03/16 07:57:21;;;;;;;2.95;1.65;;;;;;;6.44;100.00;101420.69;5223903;28;20028;-78
2023/03/16 07:59:52;;;;;;;7.72;1.80;;;;;;;6.65;100.00;101420.75;5243492;28;20507;-78
2023/03/16 08:02:22;;;;;;;8.18;1.90;;;;;;;6.81;100.00;101418.50;5225193;28;20035;-79
2023/03/16 08:04:53;;;;;;;9.45;2.13;;;;;;;7.07;100.00;101416.31;5243373;28;20025;-77
2023/03/16 08:07:24;;;;;;;5.80;2.40;;;;;;;7.37;100.00;101425.34;5242083;28;20073;-76
2023/03/16 08:09:55;;;;;;;2.53;1.65;;;;;;;7.55;100.00;101430.94;5242626;28;20024;-77
2023/03/16 08:12:25;;;;;;;6.90;2.28;;;;;;;7.59;100.00;101421.69;5243254;28;20039;-77
2023/03/16 08:14:56;;;;;;;4.43;1.67;;;;;;;7.57;100.00;101420.97;5215373;28;20524;-77
2023/03/16 08:17:26;;;;;;;4.38;1.60;;;;;;;7.55;100.00;101409.59;5241704;28;20016;-77
2023/03/16 08:19:57;;;;;;;4.65;1.80;;;;;;;7.68;100.00;101420.88;5242535;28;20031;-77
2023/03/16 08:22:28;;;;;;;4.85;1.90;;;;;;;7.72;100.00;101423.16;5216579;28;20025;-77
2023/03/16 08:24:58;;;;;;;5.25;2.00;;;;;;;7.68;100.00;101407.53;5242742;28;20028;-76
2023/03/16 08:27:29;;;;;;;6.03;1.90;;;;;;;7.60;100.00;101405.53;5242192;28;20496;-77
2023/03/16 08:32:46;;;;;;;7.47;1.50;;;;;;;7.75;100.00;101412.22;5242214;28;20028;-77
2023/03/16 08:35:16;;;;;;;4.82;1.90;;;;;;;7.76;100.00;101411.22;5224564;28;20024;-77
2023/03/16 08:37:48;;;;;;;4.35;1.75;;;;;;;7.89;100.00;101405.66;5241552;28;20021;-77
2023/03/16 08:40:21;;;;;;;4.20;1.70;;;;;;;8.11;100.00;101411.78;5239610;28;20020;-77
2023/03/16 08:42:53;;;;;;;5.47;2.20;;;;;;;8.47;100.00;101404.97;5240098;28;20119;-77
2023/03/16 08:45:23;;;;;;;8.45;1.92;;;;;;;9.12;100.00;101408.75;5224486;28;20036;-77
2023/03/16 08:47:54;;;;;;;3.47;1.52;;;;;;;9.57;100.00;101400.91;5234088;28;20058;-78
2023/03/16 08:50:25;;;;;;;5.60;1.60;;;;;;;9.62;100.00;101389.75;5240553;28;20031;-77
2023/03/16 08:52:55;;;;;;;7.57;1.73;;;;;;;10.01;100.00;101385.06;5221192;28;20044;-77
2023/03/16 08:55:26;;;;;;;4.50;1.65;;;;;;;10.14;100.00;101395.44;5207517;28;20029;-77
2023/03/16 08:57:56;;;;;;;2.58;1.42;;;;;;;10.03;100.00;101398.31;5223631;28;20114;-77
2023/03/16 09:00:28;;;;;;;5.05;1.52;;;;;;;10.29;100.00;101401.16;5242554;28;20028;-78
2023/03/16 09:02:59;;;;;;;5.53;1.30;;;;;;;10.11;100.00;101393.06;5224574;28;20020;-77
2023/03/16 09:05:30;;;;;;;5.60;1.20;;;;;;;10.45;100.00;101393.31;5246479;28;20127;-77
2023/03/16 09:08:02;;;;;;;4.47;1.48;;;;;;;10.59;100.00;101382.03;5245377;28;20111;-77
2023/03/16 09:10:34;;;;;;;5.97;1.67;;;;;;;10.64;100.00;101394.97;5228507;28;20028;-77
2023/03/16 09:13:04;;;;;;;2.30;1.20;;;;;;;10.66;100.00;101392.16;5246842;28;20408;-78
2023/03/16 09:15:35;;;;;;;1.92;1.25;;;;;;;10.66;100.00;101393.00;5246054;28;20108;-77
2023/03/16 09:18:05;;;;;;;9.82;1.70;;;;;;;10.77;100.00;101387.38;5226471;28;20024;-78
2023/03/16 09:20:36;;;;;;;5.03;1.88;;;;;;;10.55;100.00;101382.50;5245632;28;20025;-77
2023/03/16 09:23:07;;;;;;;4.18;1.30;;;;;;;10.47;100.00;101385.94;5228494;28;20024;-78
2023/03/16 09:25:37;;;;;;;7.93;1.92;;;;;;;10.72;100.00;101394.22;5245765;28;20019;-77
2023/03/16 09:28:07;;;;;;;6.45;1.60;;;;;;;10.78;100.00;101383.69;5245816;28;20039;-77
2023/03/16 09:30:38;;;;;;;7.90;2.00;;;;;;;10.76;100.00;101391.06;5217534;28;20035;-77
2023/03/16 09:33:09;;;;;;;6.90;1.90;;;;;;;10.73;100.00;101382.47;5245672;28;20504;-77
2023/03/16 09:35:39;;;;;;;4.07;1.60;;;;;;;10.83;100.00;101388.59;5245820;28;20056;-77
2023/03/16 09:38:10;;;;;;;2.88;1.60;;;;;;;10.23;100.00;101377.59;5245459;28;20703;-78
2023/03/16 09:40:41;;;;;;;4.80;2.20;;;;;;;10.18;100.00;101382.56;5217787;28;20035;-78
2023/03/16 09:43:31;;;;;;;10.20;2.00;;;;;;;10.04;100.00;101382.09;5246161;28;20067;-78
2023/03/16 09:46:37;;;;;;;5.70;1.15;;;;;;;9.80;100.00;101366.56;5245390;28;20028;-77
2023/03/16 09:49:11;;;;;;;2.90;1.10;;;;;;;9.96;100.00;101382.00;5231672;28;20468;-77
2023/03/16 09:52:05;;;;;;;5.53;1.77;;;;;;;10.04;100.00;101376.75;5245120;28;20035;-77
2023/03/16 09:54:50;;;;;;;4.15;1.63;;;;;;;10.19;100.00;101368.16;5225049;28;20020;-77
2023/03/16 09:57:35;;;;;;;4.70;1.38;;;;;;;10.12;100.00;101363.41;5226827;28;20028;-77
2023/03/16 10:00:16;;;;;;;4.97;1.60;;;;;;;10.10;100.00;101362.72;5244630;28;20024;-78
2023/03/16 10:03:17;;;;;;;5.25;1.55;;;;;;;10.17;100.00;101362.13;5245938;28;20024;-77
2023/03/16 10:05:56;;;;;;;3.78;1.40;;;;;;;10.37;100.00;101366.38;5240870;28;20016;-77
2023/03/16 10:08:44;;;;;;;5.82;1.23;;;;;;;10.26;100.00;101366.59;5222280;28;20384;-78
2023/03/16 10:11:37;;;;;;;6.93;1.25;;;;;;;10.67;100.00;101375.06;5247649;28;20029;-78
2023/03/16 10:14:29;;;;;;;3.80;1.20;;;;;;;10.73;100.00;101367.22;5242261;28;20016;-77
2023/03/16 10:17:05;;;;;;;4.18;1.00;;;;;;;10.69;100.00;101373.03;5243353;28;20089;-77
2023/03/16 10:19:52;;;;;;;5.22;1.38;;;;;;;10.81;100.00;101361.94;5225308;28;20020;-78
2023/03/16 10:22:26;;;;;;;3.53;1.08;;;;;;;10.82;100.00;101363.63;5244914;28;20484;-76
2023/03/16 10:25:15;;;;;;;9.20;1.42;;;;;;;11.25;100.00;101366.47;5227057;28;20492;-78
2023/03/16 10:27:47;;;;;;;4.57;1.23;;;;;;;11.43;100.00;101350.25;5244431;28;20020;-77
2023/03/16 10:30:21;;;;;;;5.10;1.35;;;;;;;11.60;100.00;101355.56;5244539;28;20097;-78
2023/03/16 10:32:53;;;;;;;4.78;1.70;;;;;;;11.36;100.00;101352.75;5227331;28;20401;-77
2023/03/16 10:35:45;;;;;;;4.97;1.35;;;;;;;11.31;100.00;101349.69;5244601;28;20063;-77
2023/03/16 10:38:29;;;;;;;3.72;1.00;;;;;;;11.58;100.00;101354.03;5244265;28;20032;-78
2023/03/16 10:41:00;;;;;;;4.43;1.20;;;;;;;11.56;100.00;101339.94;5226713;28;20028;-77
2023/03/16 10:43:31;;;;;;;4.72;1.45;;;;;;;11.73;100.00;101338.16;5244684;28;20408;-78
2023/03/16 10:46:02;;;;;;;2.05;0.70;;;;;;;11.54;100.00;101332.00;5244574;28;20024;-77
2023/03/16 10:48:33;;;;;;;3.85;1.20;;;;;;;11.95;100.00;101329.53;5240357;28;20048;-78
2023/03/16 10:51:24;;;;;;;1.95;1.08;;;;;;;12.01;100.00;101318.13;5244654;28;20032;-78
2023/03/16 10:54:05;;;;;;;6.05;1.48;;;;;;;12.02;100.00;101319.78;5241738;28;20043;-78
2023/03/16 10:56:36;;;;;;;3.38;0.80;;;;;;;12.05;100.00;101313.22;5230286;28;20718;-78
2023/03/16 10:59:44;;;;;;;3.95;1.50;;;;;;;12.24;100.00;101312.94;5244114;28;20029;-78
2023/03/16 11:02:18;;;;;;;2.47;1.08;;;;;;;12.11;100.00;101316.13;5244147;28;20141;-78
2023/03/16 11:04:49;;;;;;;5.18;1.00;;;;;;;11.82;100.00;101310.34;5231995;28;20051;-78
2023/03/16 11:07:23;;;;;;;2.83;1.17;;;;;;;12.11;100.00;101296.47;5225492;28;20012;-77
2023/03/16 11:09:55;;;;;;;3.13;1.20;;;;;;;12.39;100.00;101305.91;5244165;28;20044;-78
2023/03/16 11:12:30;;;;;;;1.80;1.00;;;;;;;12.55;100.00;101301.53;5244011;28;20074;-78
2023/03/16 11:15:03;;;;;;;4.20;1.00;;;;;;;12.21;100.00;101302.53;5244391;28;20029;-78
2023/03/16 11:17:38;;;;;;;4.20;1.08;;;;;;;12.22;100.00;101293.44;5242723;28;20044;-78
2023/03/16 11:20:16;;;;;;;2.72;1.02;;;;;;;12.19;100.00;101291.91;5244044;28;20107;-78
2023/03/16 11:22:47;;;;;;;5.93;1.27;;;;;;;12.33;100.00;101281.53;5226367;28;20079;-78
2023/03/16 11:25:27;;;;;;;4.00;1.00;;;;;;;12.59;100.00;101290.25;5243713;28;20646;-78
2023/03/16 11:28:10;;;;;;;2.72;0.93;;;;;;;12.40;100.00;101272.63;5242765;28;20388;-78
2023/03/16 11:31:05;;;;;;;3.30;1.02;;;;;;;12.75;100.00;101267.03;5243649;28;20024;-78
2023/03/16 11:33:36;;;;;;;5.97;1.25;;;;;;;12.92;100.00;101268.72;5247089;28;20023;-78
2023/03/16 11:36:16;;;;;;;4.07;1.00;;;;;;;12.75;100.00;101261.66;5243365;28;20035;-78
2023/03/16 11:39:24;;;;;;;4.00;0.90;;;;;;;12.73;98.35;101255.59;5243992;28;20028;-78
2023/03/16 11:42:17;;;;;;;4.60;1.30;;;;;;;12.84;100.00;101256.09;5232763;28;20046;-78
2023/03/16 11:45:25;;;;;;;3.80;1.02;;;;;;;12.93;100.00;101271.22;5225937;28;20035;-78
2023/03/16 11:48:08;;;;;;;2.35;1.17;;;;;;;12.84;94.89;101257.94;5233725;28;20024;-77
2023/03/16 11:51:03;;;;;;;3.78;1.73;;;;;;;12.87;100.00;101255.75;5234499;28;20035;-77
2023/03/16 11:53:52;;;;;;;2.42;1.00;;;;;;;13.16;100.00;101254.34;5240640;28;20028;-77